createdAt,value
2023-05-18T00:00:34.300Z,16.05
2023-05-18T00:03:03.435Z,15.57
2023-05-18T00:05:34.387Z,12.77
2023-05-18T00:08:01.830Z,15.38
2023-05-18T00:10:29.864Z,17.33
2023-05-18T00:12:57.036Z,14.10
2023-05-18T00:15:24.267Z,12.77
2023-05-18T00:17:53.545Z,14.65
2023-05-18T00:20:22.320Z,14.40
2023-05-18T00:22:50.979Z,14.07
2023-05-18T00:25:18.106Z,12.18
2023-05-18T00:27:45.147Z,14.35
2023-05-18T00:30:12.992Z,16.67
2023-05-18T00:32:40.137Z,16.20
2023-05-18T00:35:07.833Z,15.60
2023-05-18T00:37:35.000Z,21.13
2023-05-18T00:40:02.252Z,13.60
2023-05-18T00:42:31.760Z,18.05
2023-05-18T00:44:58.841Z,16.35
2023-05-18T00:47:25.911Z,17.00
2023-05-18T00:49:53.063Z,16.13
2023-05-18T00:52:21.629Z,17.52
2023-05-18T00:54:49.580Z,18.52
2023-05-18T00:57:19.203Z,20.15
2023-05-18T00:59:47.537Z,16.05
2023-05-18T01:02:15.859Z,19.23
2023-05-18T01:04:43.236Z,16.95
2023-05-18T01:07:11.375Z,15.20
2023-05-18T01:09:39.107Z,14.82
2023-05-18T01:12:13.032Z,17.42
2023-05-18T01:14:54.616Z,18.80
2023-05-18T01:17:37.894Z,16.17
2023-05-18T01:20:12.015Z,15.45
2023-05-18T01:23:10.305Z,19.00
2023-05-18T01:25:55.714Z,15.32
2023-05-18T01:28:33.616Z,13.95
2023-05-18T01:31:01.684Z,15.50
2023-05-18T01:33:28.900Z,17.67
2023-05-18T01:35:56.119Z,14.98
2023-05-18T01:38:26.674Z,15.50
2023-05-18T01:41:00.189Z,20.52
2023-05-18T01:43:52.065Z,14.27
2023-05-18T01:46:43.830Z,18.13
2023-05-18T01:49:24.166Z,16.98
2023-05-18T01:51:54.253Z,18.38
2023-05-18T01:54:23.588Z,17.50
2023-05-18T01:56:54.449Z,18.60
2023-05-18T01:59:24.182Z,17.92
2023-05-18T02:01:52.004Z,16.20
2023-05-18T02:04:27.964Z,18.67
2023-05-18T02:06:55.701Z,15.70
2023-05-18T02:09:23.345Z,13.32
2023-05-18T02:11:51.444Z,18.90
2023-05-18T02:14:18.674Z,17.45
2023-05-18T02:16:47.417Z,16.63
2023-05-18T02:19:15.322Z,17.50
2023-05-18T02:21:43.733Z,15.65
2023-05-18T02:24:12.589Z,18.55
2023-05-18T02:26:41.809Z,17.15
2023-05-18T02:29:11.927Z,13.88
2023-05-18T02:31:39.392Z,19.40
2023-05-18T02:34:07.086Z,23.25
2023-05-18T02:36:43.036Z,16.42
2023-05-18T02:39:10.672Z,19.98
2023-05-18T02:41:38.306Z,19.90
2023-05-18T02:44:06.405Z,18.65
2023-05-18T02:46:33.546Z,21.77
2023-05-18T02:49:00.843Z,18.52
2023-05-18T02:51:30.086Z,16.55
2023-05-18T02:53:57.729Z,17.42
2023-05-18T02:56:25.371Z,19.27
2023-05-18T02:59:04.024Z,18.48
2023-05-18T03:01:37.961Z,17.77
2023-05-18T03:04:05.874Z,18.90
2023-05-18T03:06:36.191Z,20.48
2023-05-18T03:09:03.593Z,19.52
2023-05-18T03:11:39.018Z,20.23
2023-05-18T03:14:06.125Z,16.35
2023-05-18T03:16:33.635Z,19.40
2023-05-18T03:19:02.832Z,19.08
2023-05-18T03:21:36.960Z,18.35
2023-05-18T03:24:04.582Z,18.17
2023-05-18T03:26:34.067Z,20.98
2023-05-18T03:29:03.873Z,23.73
2023-05-18T03:31:31.202Z,18.65
2023-05-18T03:34:00.415Z,20.67
2023-05-18T03:36:28.400Z,23.17
2023-05-18T03:38:55.969Z,20.98
2023-05-18T03:41:23.812Z,20.95
2023-05-18T03:43:52.596Z,17.77
2023-05-18T03:46:19.767Z,23.20
2023-05-18T03:48:46.840Z,19.67
2023-05-18T03:51:17.739Z,18.95
2023-05-18T03:53:44.795Z,22.77
2023-05-18T03:56:13.449Z,22.23
2023-05-18T03:58:42.538Z,22.02
2023-05-18T04:01:10.028Z,25.60
2023-05-18T04:03:37.284Z,24.92
2023-05-18T04:06:06.533Z,22.42
2023-05-18T04:08:34.611Z,21.42
2023-05-18T04:11:01.756Z,19.58
2023-05-18T04:13:29.155Z,19.65
2023-05-18T04:15:58.608Z,18.13
2023-05-18T04:18:30.298Z,18.95
2023-05-18T04:20:57.669Z,19.08
2023-05-18T04:23:24.749Z,20.67
2023-05-18T04:25:51.870Z,20.52
2023-05-18T04:28:19.450Z,16.52
2023-05-18T04:30:47.747Z,23.92
2023-05-18T04:33:16.461Z,21.77
2023-05-18T04:35:45.153Z,19.05
2023-05-18T04:38:13.429Z,27.52
2023-05-18T04:40:42.840Z,24.60
2023-05-18T04:43:11.546Z,21.02
2023-05-18T04:45:39.353Z,24.20
2023-05-18T04:48:06.852Z,18.20
2023-05-18T04:50:33.991Z,17.30
2023-05-18T04:53:02.578Z,18.45
2023-05-18T04:55:31.294Z,15.38
2023-05-18T04:58:03.684Z,20.98
2023-05-18T05:00:31.444Z,13.38
2023-05-18T05:02:59.500Z,17.25
2023-05-18T05:05:27.634Z,19.50
2023-05-18T05:07:56.000Z,13.98
2023-05-18T05:10:23.431Z,13.25
2023-05-18T05:12:51.585Z,14.65
2023-05-18T05:15:20.140Z,13.60
2023-05-18T05:17:50.163Z,12.32
2023-05-18T05:20:18.652Z,12.98
2023-05-18T05:22:45.923Z,16.80
2023-05-18T05:25:16.389Z,15.88
2023-05-18T05:27:44.541Z,13.05
2023-05-18T05:30:12.667Z,19.25
2023-05-18T05:32:42.092Z,12.43
2023-05-18T05:35:09.677Z,11.88
2023-05-18T05:37:37.273Z,14.55
2023-05-18T05:40:06.743Z,11.90
2023-05-18T05:42:38.923Z,15.65
2023-05-18T05:45:06.918Z,13.75
2023-05-18T05:47:40.869Z,12.52
2023-05-18T05:50:08.665Z,12.93
2023-05-18T05:52:36.815Z,12.73
2023-05-18T05:55:05.783Z,10.90
2023-05-18T05:57:34.003Z,11.43
2023-05-18T06:00:01.757Z,11.55
2023-05-18T06:02:34.351Z,21.13
2023-05-18T06:05:01.949Z,9.75
2023-05-18T06:07:31.691Z,12.52
2023-05-18T06:09:59.008Z,8.65
2023-05-18T06:12:26.144Z,12.88
2023-05-18T06:14:57.514Z,10.68
2023-05-18T06:17:26.196Z,14.07
2023-05-18T06:19:54.728Z,12.63
2023-05-18T06:22:21.793Z,12.38
2023-05-18T06:25:10.884Z,8.98
2023-05-18T06:27:58.296Z,10.73
2023-05-18T06:30:51.591Z,10.95
2023-05-18T06:33:31.360Z,12.38
2023-05-18T06:35:58.605Z,10.10
2023-05-18T06:38:25.767Z,9.80
2023-05-18T06:40:52.886Z,15.50
2023-05-18T06:43:20.354Z,13.10
2023-05-18T06:45:57.267Z,10.43
2023-05-18T06:48:31.176Z,10.98
2023-05-18T06:50:58.327Z,8.95
2023-05-18T06:53:26.468Z,9.73
2023-05-18T06:55:53.590Z,8.63
2023-05-18T06:58:20.998Z,8.45
2023-05-18T07:00:49.464Z,8.50
2023-05-18T07:03:17.451Z,6.25
2023-05-18T07:05:44.721Z,7.80
2023-05-18T07:08:11.922Z,7.57
2023-05-18T07:10:39.005Z,6.53
2023-05-18T07:13:06.227Z,5.07
2023-05-18T07:15:33.588Z,5.72
2023-05-18T07:18:00.847Z,5.78
2023-05-18T07:20:28.117Z,7.35
2023-05-18T07:22:56.075Z,7.80
2023-05-18T07:25:23.951Z,6.63
2023-05-18T07:27:54.827Z,8.50
2023-05-18T07:30:22.877Z,6.00
2023-05-18T07:32:51.552Z,14.68
2023-05-18T07:35:28.254Z,7.43
2023-05-18T07:37:55.380Z,8.07
2023-05-18T07:40:22.516Z,8.05
2023-05-18T07:42:49.585Z,6.53
2023-05-18T07:45:16.764Z,5.57
2023-05-18T07:47:43.979Z,6.07
2023-05-18T07:50:11.657Z,7.38
2023-05-18T07:52:38.702Z,4.90
2023-05-18T07:55:06.462Z,9.63
2023-05-18T07:57:35.538Z,6.00
2023-05-18T08:00:05.120Z,6.32
2023-05-18T08:02:40.532Z,7.72
2023-05-18T08:05:09.572Z,9.05
2023-05-18T08:07:36.879Z,9.63
2023-05-18T08:10:04.645Z,8.73
2023-05-18T08:12:32.613Z,8.75
2023-05-18T08:14:59.715Z,8.85
2023-05-18T08:17:26.909Z,7.18
2023-05-18T08:19:54.947Z,6.53
2023-05-18T08:22:21.998Z,5.55
2023-05-18T08:24:49.091Z,4.68
2023-05-18T08:27:16.181Z,7.40
2023-05-18T08:29:43.266Z,5.97
2023-05-18T08:32:10.488Z,7.45
2023-05-18T08:34:37.963Z,4.38
2023-05-18T08:37:05.312Z,4.97
2023-05-18T08:39:32.594Z,6.07
2023-05-18T08:42:09.954Z,3.92
2023-05-18T08:44:48.462Z,4.63
2023-05-18T08:47:17.069Z,4.25
2023-05-18T08:49:47.012Z,8.25
2023-05-18T08:52:19.318Z,6.88
2023-05-18T08:54:47.249Z,5.57
2023-05-18T08:57:16.696Z,6.60
2023-05-18T08:59:45.357Z,6.35
2023-05-18T09:02:13.735Z,8.75
2023-05-18T09:04:42.714Z,8.40
2023-05-18T09:07:11.136Z,6.63
2023-05-18T09:09:38.841Z,6.85
2023-05-18T09:12:06.778Z,7.10
2023-05-18T09:14:34.038Z,5.45
2023-05-18T09:17:01.146Z,6.70
2023-05-18T09:19:28.897Z,8.45
2023-05-18T09:21:56.005Z,6.70
2023-05-18T09:24:24.870Z,8.95
2023-05-18T09:26:52.438Z,7.00
2023-05-18T09:29:21.410Z,6.22
2023-05-18T09:31:49.242Z,6.50
2023-05-18T09:34:19.471Z,6.80
2023-05-18T09:36:57.158Z,10.07
2023-05-18T09:39:24.268Z,8.13
2023-05-18T09:41:57.331Z,7.10
2023-05-18T09:44:37.247Z,6.28
2023-05-18T09:47:12.279Z,5.28
2023-05-18T09:49:40.857Z,5.88
2023-05-18T09:52:09.424Z,8.77
2023-05-18T09:54:37.843Z,6.88
2023-05-18T09:59:36.896Z,7.85
2023-05-18T10:02:06.234Z,6.70
2023-05-18T10:04:41.952Z,5.32
2023-05-18T10:07:17.412Z,9.35
2023-05-18T10:09:46.648Z,8.00
2023-05-18T10:12:19.983Z,7.85
2023-05-18T10:14:47.137Z,9.85
2023-05-18T10:17:17.073Z,6.15
2023-05-18T10:19:45.859Z,8.43
2023-05-18T10:22:16.352Z,9.02
2023-05-18T10:24:49.451Z,7.60
2023-05-18T10:27:20.150Z,9.05
2023-05-18T10:29:47.302Z,6.10
2023-05-18T10:32:16.863Z,7.05
2023-05-18T10:34:45.168Z,8.15
2023-05-18T10:37:14.576Z,7.03
2023-05-18T10:39:45.839Z,7.82
2023-05-18T10:42:16.404Z,7.00
2023-05-18T10:44:45.534Z,7.05
2023-05-18T10:47:15.187Z,8.07
2023-05-18T10:49:48.752Z,6.20
2023-05-18T10:52:17.982Z,7.93
2023-05-18T10:54:46.173Z,9.50
2023-05-18T10:57:18.555Z,6.82
2023-05-18T10:59:48.356Z,5.75
2023-05-18T11:02:18.472Z,8.60
2023-05-18T11:04:48.005Z,5.53
2023-05-18T11:07:15.789Z,7.30
2023-05-18T11:09:44.174Z,7.88
2023-05-18T11:12:16.407Z,7.45
2023-05-18T11:14:54.429Z,7.45
2023-05-18T11:17:26.342Z,7.63
2023-05-18T11:20:09.069Z,8.30
2023-05-18T11:23:01.762Z,6.68
2023-05-18T11:25:28.866Z,5.82
2023-05-18T11:28:02.343Z,6.55
2023-05-18T11:30:33.430Z,6.65
2023-05-18T11:33:23.357Z,7.53
2023-05-18T11:36:13.678Z,6.30
2023-05-18T11:39:05.085Z,7.22
2023-05-18T11:41:33.242Z,5.68
2023-05-18T11:44:15.441Z,5.55
2023-05-18T11:46:54.242Z,5.78
2023-05-18T11:49:23.791Z,5.85
2023-05-18T11:52:21.371Z,5.13
2023-05-18T11:54:57.103Z,5.05
2023-05-18T11:57:34.230Z,6.38
2023-05-18T12:00:06.481Z,8.05
2023-05-18T12:02:46.617Z,6.45
2023-05-18T12:05:14.771Z,6.32
2023-05-18T12:07:42.849Z,6.63
2023-05-18T12:10:17.757Z,7.10
2023-05-18T12:12:49.443Z,5.30
2023-05-18T12:15:17.392Z,7.85
2023-05-18T12:17:46.896Z,7.72
2023-05-18T12:20:22.681Z,5.97
2023-05-18T12:22:53.813Z,4.90
2023-05-18T12:25:23.532Z,8.38
2023-05-18T12:27:52.331Z,7.82
2023-05-18T12:30:25.122Z,8.02
2023-05-18T12:32:57.029Z,6.80
2023-05-18T12:35:29.067Z,6.72
2023-05-18T12:38:00.285Z,6.50
2023-05-18T12:40:28.230Z,8.75
2023-05-18T12:42:55.872Z,7.50
2023-05-18T12:45:28.151Z,5.55
2023-05-18T12:47:56.454Z,7.55
2023-05-18T12:50:27.756Z,7.30
2023-05-18T12:52:56.673Z,8.00
2023-05-18T12:55:27.787Z,8.05
2023-05-18T12:58:13.066Z,6.25
2023-05-18T13:00:44.226Z,11.38
2023-05-18T13:03:16.066Z,4.82
2023-05-18T13:05:45.955Z,5.90
2023-05-18T13:08:19.327Z,7.18
2023-05-18T13:10:50.820Z,7.18
2023-05-18T13:13:20.182Z,7.63
2023-05-18T13:15:47.411Z,6.70
2023-05-18T13:18:15.301Z,7.55
2023-05-18T13:20:50.937Z,6.75
2023-05-18T13:23:26.703Z,5.00
2023-05-18T13:25:55.424Z,5.57
2023-05-18T13:28:23.766Z,6.35
2023-05-18T13:30:50.910Z,5.20
2023-05-18T13:33:19.353Z,5.82
2023-05-18T13:35:48.729Z,8.05
2023-05-18T13:38:16.003Z,6.05
2023-05-18T13:40:43.203Z,6.85
2023-05-18T13:43:12.023Z,9.05
2023-05-18T13:45:41.173Z,4.90
2023-05-18T13:48:10.743Z,4.65
2023-05-18T13:50:38.483Z,7.10
2023-05-18T13:53:05.512Z,7.07
2023-05-18T13:55:33.635Z,6.45
2023-05-18T13:58:01.048Z,7.03
2023-05-18T14:00:28.280Z,6.97
2023-05-18T14:02:56.754Z,5.32
2023-05-18T14:05:24.210Z,7.43
2023-05-18T14:07:54.544Z,5.93
2023-05-18T14:10:21.634Z,4.55
2023-05-18T14:12:49.423Z,5.82
2023-05-18T14:15:16.574Z,10.13
2023-05-18T14:17:44.032Z,7.03
2023-05-18T14:20:12.464Z,5.25
2023-05-18T14:22:40.291Z,5.57
2023-05-18T14:25:07.528Z,4.85
2023-05-18T14:27:34.641Z,5.72
2023-05-18T14:30:01.857Z,5.05
2023-05-18T14:32:28.896Z,6.65
2023-05-18T14:34:58.212Z,5.22
2023-05-18T14:37:25.749Z,4.40
2023-05-18T14:39:52.903Z,7.65
2023-05-18T14:42:20.039Z,6.32
2023-05-18T14:44:47.260Z,7.50
2023-05-18T14:47:14.425Z,4.78
2023-05-18T14:49:41.454Z,4.90
2023-05-18T14:52:08.457Z,4.70
2023-05-18T14:54:35.523Z,4.82
2023-05-18T14:57:02.533Z,6.03
2023-05-18T14:59:29.472Z,8.93
2023-05-18T15:01:56.526Z,4.97
2023-05-18T15:04:23.775Z,6.00
2023-05-18T15:06:50.887Z,7.82
2023-05-18T15:09:17.809Z,5.35
2023-05-18T15:11:44.852Z,6.60
2023-05-18T15:14:11.852Z,8.05
2023-05-18T15:16:39.104Z,5.95
2023-05-18T15:19:06.424Z,11.07
2023-05-18T15:21:33.447Z,7.03
2023-05-18T15:24:00.512Z,14.40
2023-05-18T15:26:27.746Z,10.63
2023-05-18T15:28:54.814Z,8.48
2023-05-18T15:31:21.808Z,9.02
2023-05-18T15:33:48.852Z,10.93
2023-05-18T15:36:16.208Z,11.48
2023-05-18T15:38:43.156Z,10.02
2023-05-18T15:41:10.150Z,6.10
2023-05-18T15:43:37.696Z,9.63
2023-05-18T15:46:05.378Z,7.07
2023-05-18T15:48:32.409Z,10.98
2023-05-18T15:50:59.378Z,8.73
2023-05-18T15:53:26.466Z,12.38
2023-05-18T15:55:58.761Z,11.40
2023-05-18T15:58:26.930Z,9.15
2023-05-18T16:00:54.225Z,12.80
2023-05-18T16:03:21.489Z,10.55
2023-05-18T16:05:48.700Z,11.93
2023-05-18T16:08:15.666Z,12.10
2023-05-18T16:10:42.814Z,8.65
2023-05-18T16:13:09.824Z,8.00
2023-05-18T16:15:37.080Z,9.65
2023-05-18T16:18:04.453Z,12.73
2023-05-18T16:20:31.791Z,8.93
2023-05-18T16:22:59.152Z,8.07
2023-05-18T16:25:26.600Z,8.15
2023-05-18T16:27:53.620Z,7.75
2023-05-18T16:30:20.671Z,9.23
2023-05-18T16:32:47.684Z,9.00
2023-05-18T16:35:14.672Z,9.20
2023-05-18T16:37:41.757Z,9.70
2023-05-18T16:40:09.110Z,5.82
2023-05-18T16:42:36.236Z,9.57
2023-05-18T16:45:03.544Z,10.13
2023-05-18T16:47:33.729Z,9.00
2023-05-18T16:50:01.011Z,9.05
2023-05-18T16:52:28.122Z,12.38
2023-05-18T16:54:55.152Z,9.05
2023-05-18T16:57:22.323Z,5.93
2023-05-18T16:59:49.418Z,8.18
2023-05-18T17:02:17.962Z,7.85
2023-05-18T17:04:50.067Z,8.20
2023-05-18T17:07:17.317Z,9.93
2023-05-18T17:09:44.625Z,8.90
2023-05-18T17:12:12.284Z,9.13
2023-05-18T17:14:39.567Z,6.50
2023-05-18T17:17:07.642Z,9.82
2023-05-18T17:19:39.509Z,7.78
2023-05-18T17:22:06.560Z,7.93
2023-05-18T17:24:33.568Z,9.60
2023-05-18T17:27:00.783Z,9.60
2023-05-18T17:29:27.768Z,7.32
2023-05-18T17:31:55.033Z,9.13
2023-05-18T17:34:22.790Z,13.38
2023-05-18T17:36:49.968Z,11.45
2023-05-18T17:39:16.964Z,9.20
2023-05-18T17:41:44.343Z,8.27
2023-05-18T17:44:14.319Z,8.60
2023-05-18T17:46:41.860Z,12.57
2023-05-18T17:49:09.284Z,11.90
2023-05-18T17:51:36.488Z,10.48
2023-05-18T17:54:04.087Z,9.82
2023-05-18T17:56:31.933Z,12.35
2023-05-18T17:58:59.348Z,10.45
2023-05-18T18:01:27.681Z,9.27
2023-05-18T18:03:55.815Z,10.38
2023-05-18T18:06:23.524Z,9.13
2023-05-18T18:08:57.751Z,9.25
2023-05-18T18:11:26.272Z,10.27
2023-05-18T18:13:53.759Z,8.85
2023-05-18T18:16:21.383Z,9.30
2023-05-18T18:18:48.813Z,10.13
2023-05-18T18:21:16.404Z,9.02
2023-05-18T18:23:43.513Z,12.05
2023-05-18T18:26:11.128Z,7.68
2023-05-18T18:28:38.757Z,7.15
2023-05-18T18:31:05.897Z,9.88
2023-05-18T18:33:33.516Z,7.15
2023-05-18T18:36:00.610Z,9.20
2023-05-18T18:38:28.902Z,8.13
2023-05-18T18:41:01.442Z,8.70
2023-05-18T18:43:29.091Z,8.90
2023-05-18T18:45:57.414Z,9.05
2023-05-18T18:48:25.631Z,8.70
2023-05-18T18:50:53.456Z,8.25
2023-05-18T18:53:20.693Z,6.60
2023-05-18T18:55:48.299Z,8.38
2023-05-18T18:58:15.880Z,7.72
2023-05-18T19:00:43.358Z,6.45
2023-05-18T19:03:10.635Z,9.52
2023-05-18T19:05:38.193Z,10.45
2023-05-18T19:08:05.552Z,7.40
2023-05-18T19:10:34.350Z,10.05
2023-05-18T19:13:05.867Z,8.80
2023-05-18T19:15:34.893Z,9.18
2023-05-18T19:18:04.132Z,9.10
2023-05-18T19:20:31.407Z,10.68
2023-05-18T19:22:58.784Z,10.00
2023-05-18T19:25:26.488Z,13.20
2023-05-18T19:27:54.206Z,9.90
2023-05-18T19:30:22.789Z,8.10
2023-05-18T19:32:52.574Z,11.20
2023-05-18T19:35:21.235Z,9.55
2023-05-18T19:37:48.379Z,8.90
2023-05-18T19:40:16.420Z,14.27
2023-05-18T19:42:44.008Z,10.98
2023-05-18T19:45:11.195Z,10.38
2023-05-18T19:47:38.481Z,8.88
2023-05-18T19:50:07.207Z,9.45
2023-05-18T19:52:34.841Z,7.43
2023-05-18T19:55:02.602Z,9.98
2023-05-18T19:57:33.222Z,12.15
2023-05-18T20:00:01.576Z,10.27
2023-05-18T20:02:35.325Z,8.68
2023-05-18T20:05:05.735Z,8.30
2023-05-18T20:07:34.199Z,9.88
2023-05-18T20:10:01.469Z,10.00
2023-05-18T20:12:33.802Z,7.15
2023-05-18T20:15:01.270Z,10.15
2023-05-18T20:17:32.648Z,9.00
2023-05-18T20:20:00.214Z,8.02
2023-05-18T20:22:27.675Z,9.38
2023-05-18T20:24:55.046Z,8.35
2023-05-18T20:27:22.330Z,12.02
2023-05-18T20:29:49.434Z,9.02
2023-05-18T20:32:16.572Z,8.23
2023-05-18T20:34:44.620Z,8.63
2023-05-18T20:37:14.162Z,11.27
2023-05-18T20:39:42.844Z,9.23
2023-05-18T20:42:12.889Z,8.20
2023-05-18T20:44:40.131Z,6.93
2023-05-18T20:47:07.432Z,9.23
2023-05-18T20:49:34.522Z,9.30
2023-05-18T20:52:01.597Z,9.45
2023-05-18T20:54:28.706Z,7.53
2023-05-18T20:56:56.274Z,7.72
2023-05-18T20:59:23.456Z,9.52
2023-05-18T21:01:51.212Z,7.35
2023-05-18T21:04:19.559Z,8.77
2023-05-18T21:06:47.031Z,7.55
2023-05-18T21:09:14.146Z,10.82
2023-05-18T21:11:41.794Z,8.93
2023-05-18T21:14:09.264Z,9.65
2023-05-18T21:16:36.788Z,9.25
2023-05-18T21:19:04.090Z,9.00
2023-05-18T21:21:31.842Z,10.75
2023-05-18T21:23:59.019Z,10.52
2023-05-18T21:26:26.671Z,10.38
2023-05-18T21:28:54.315Z,9.50
2023-05-18T21:31:21.583Z,8.50
2023-05-18T21:33:48.790Z,9.20
2023-05-18T21:36:16.276Z,10.07
2023-05-18T21:38:43.366Z,12.15
2023-05-18T21:41:10.680Z,10.40
2023-05-18T21:43:37.707Z,8.85
2023-05-18T21:46:06.441Z,10.52
2023-05-18T21:48:34.969Z,9.38
2023-05-18T21:51:03.993Z,8.90
2023-05-18T21:53:31.077Z,9.27
2023-05-18T21:55:58.161Z,9.48
2023-05-18T21:58:25.660Z,9.10
2023-05-18T22:00:52.848Z,10.02
2023-05-18T22:03:20.051Z,10.30
2023-05-18T22:05:47.353Z,13.65
2023-05-18T22:08:14.485Z,11.13
2023-05-18T22:10:41.779Z,11.93
2023-05-18T22:13:09.512Z,11.43
2023-05-18T22:15:37.458Z,9.43
2023-05-18T22:18:04.872Z,9.55
2023-05-18T22:20:33.260Z,9.85
2023-05-18T22:23:00.487Z,9.43
2023-05-18T22:25:27.723Z,9.85
2023-05-18T22:27:55.071Z,11.68
2023-05-18T22:30:24.007Z,9.00
2023-05-18T22:32:52.020Z,10.00
2023-05-18T22:35:19.304Z,9.88
2023-05-18T22:37:46.903Z,11.75
2023-05-18T22:40:14.020Z,9.43
2023-05-18T22:42:41.135Z,10.10
2023-05-18T22:45:10.170Z,11.25
2023-05-18T22:47:39.561Z,9.32
2023-05-18T22:50:07.607Z,8.95
2023-05-18T22:52:35.142Z,10.15
2023-05-18T22:55:03.903Z,10.25
2023-05-18T22:57:33.244Z,9.13
2023-05-18T23:00:00.831Z,8.65
2023-05-18T23:02:28.297Z,9.80
2023-05-18T23:04:55.434Z,9.65
2023-05-18T23:07:24.704Z,9.55
2023-05-18T23:09:52.384Z,8.40
2023-05-18T23:12:20.521Z,8.13
2023-05-18T23:14:49.809Z,7.38
2023-05-18T23:17:18.906Z,7.75
2023-05-18T23:19:48.424Z,7.75
2023-05-18T23:22:15.722Z,7.18
2023-05-18T23:24:43.536Z,6.60
2023-05-18T23:27:11.347Z,7.18
2023-05-18T23:29:39.005Z,6.65
2023-05-18T23:32:06.295Z,6.20
2023-05-18T23:34:33.650Z,6.00
2023-05-18T23:37:06.706Z,6.32
2023-05-18T23:39:34.777Z,5.30
2023-05-18T23:42:02.783Z,5.40
2023-05-18T23:44:30.188Z,5.55
2023-05-18T23:46:57.528Z,5.30
2023-05-18T23:49:24.940Z,4.88
2023-05-18T23:51:53.208Z,6.65
2023-05-18T23:54:21.007Z,6.50
2023-05-18T23:56:50.598Z,6.07
2023-05-18T23:59:18.198Z,4.97
